Time;durP1;ratioP1;P1;durP2;ratioP2;P2;SDS_P1;SDS_P2;PMS_P1;PMS_P2;Temp;Humidity;BMP_temperature;BMP_pressure;BME280_temperature;BME280_humidity;BME280_pressure;Samples;Min_cycle;Max_cycle;Signal;HPM_P1;HPM_P2
2022/10/18 06:41:07;;;;;;;12.77;4.20;;;;;;;13.17;100.00;99885.19;5140043;27;20809;-77
2022/10/18 06:43:34;;;;;;;13.98;3.70;;;;;;;13.31;100.00;99888.97;5130256;27;20054;-77
2022/10/18 06:46:03;;;;;;;6.40;3.72;;;;;;;13.58;100.00;99896.59;5128929;27;20122;-77
2022/10/18 06:48:31;;;;;;;9.05;3.38;;;;;;;13.66;100.00;99881.16;5120233;27;20043;-77
2022/10/18 06:50:59;;;;;;;6.45;3.40;;;;;;;13.94;100.00;99895.88;5125733;27;20054;-77
2022/10/18 06:53:28;;;;;;;11.93;2.95;;;;;;;14.06;100.00;99896.25;5125714;27;20054;-77
2022/10/18 06:55:59;;;;;;;17.33;4.07;;;;;;;14.18;100.00;99895.75;5128365;27;20055;-77
2022/10/18 06:58:27;;;;;;;9.85;3.85;;;;;;;14.37;100.00;99916.19;5128165;27;20050;-77
2022/10/18 07:00:54;;;;;;;5.80;3.03;;;;;;;14.31;100.00;99904.97;5128070;27;20047;-77
2022/10/18 07:03:21;;;;;;;6.97;3.42;;;;;;;14.43;100.00;99921.72;5127355;27;20058;-77
2022/10/18 07:05:48;;;;;;;11.63;3.33;;;;;;;14.43;100.00;99894.38;5126208;27;20051;-77
2022/10/18 07:08:14;;;;;;;7.55;3.88;;;;;;;14.50;100.00;99892.56;5126709;27;20406;-77
2022/10/18 07:10:41;;;;;;;10.38;3.05;;;;;;;14.66;100.00;99907.94;5127968;27;20043;-77
2022/10/18 07:13:07;;;;;;;9.38;3.25;;;;;;;14.72;100.00;99914.50;5127322;27;20060;-77
2022/10/18 07:15:37;;;;;;;7.80;2.90;;;;;;;14.81;100.00;99902.44;5128041;27;20047;-77
2022/10/18 07:18:04;;;;;;;5.32;2.90;;;;;;;14.90;100.00;99908.59;5128054;27;20051;-77
2022/10/18 07:20:30;;;;;;;18.25;3.00;;;;;;;14.86;100.00;99901.84;5123810;27;20046;-77
2022/10/18 07:22:57;;;;;;;4.47;2.67;;;;;;;15.01;100.00;99929.16;5127190;27;20502;-77
2022/10/18 07:25:23;;;;;;;8.02;2.95;;;;;;;15.04;100.00;99929.59;5126941;27;20039;-77
2022/10/18 07:27:50;;;;;;;6.25;2.90;;;;;;;14.98;100.00;99910.34;5127247;27;20054;-77
2022/10/18 07:30:16;;;;;;;6.43;3.10;;;;;;;15.12;100.00;99936.00;5128044;27;20130;-77
2022/10/18 07:32:44;;;;;;;7.95;3.17;;;;;;;15.18;100.00;99936.06;5123751;27;20505;-77
2022/10/18 07:35:11;;;;;;;7.05;2.33;;;;;;;15.06;100.00;99923.94;5126540;27;20126;-77
2022/10/18 07:37:37;;;;;;;10.63;2.97;;;;;;;15.20;100.00;99944.94;5127140;27;20061;-77
2022/10/18 07:40:04;;;;;;;11.57;3.47;;;;;;;15.12;100.00;99928.63;5107845;27;20040;-77
2022/10/18 07:42:31;;;;;;;8.98;3.22;;;;;;;15.19;100.00;99939.63;5100415;28;20071;-77
2022/10/18 07:44:57;;;;;;;9.05;3.00;;;;;;;15.17;100.00;99928.88;5091565;28;20467;-77
2022/10/18 07:47:24;;;;;;;5.82;2.97;;;;;;;15.24;100.00;99939.06;5101480;28;20486;-77
2022/10/18 07:49:52;;;;;;;5.38;2.78;;;;;;;15.30;100.00;99928.16;5101644;28;20044;-77
2022/10/18 07:52:18;;;;;;;4.68;3.10;;;;;;;15.44;100.00;99928.28;5088429;28;20048;-77
2022/10/18 07:54:45;;;;;;;10.73;4.07;;;;;;;15.64;100.00;99925.69;5084463;28;20048;-77
2022/10/18 07:57:11;;;;;;;6.18;2.78;;;;;;;15.90;100.00;99934.13;5084984;28;20075;-77
2022/10/18 07:59:38;;;;;;;6.15;2.70;;;;;;;15.87;100.00;99922.72;5092163;28;20044;-77
2022/10/18 08:02:05;;;;;;;5.45;2.72;;;;;;;16.10;100.00;99944.38;5091567;28;20063;-77
2022/10/18 08:04:31;;;;;;;23.33;2.72;;;;;;;16.18;100.00;99932.38;5089640;28;20048;-77
2022/10/18 08:06:59;;;;;;;12.10;2.75;;;;;;;16.23;100.00;99922.50;5092275;28;20044;-77
2022/10/18 08:09:26;;;;;;;3.72;2.20;;;;;;;16.43;100.00;99935.47;5093005;28;20051;-77
2022/10/18 08:11:52;;;;;;;5.90;2.90;;;;;;;16.41;100.00;99927.44;5091193;28;20044;-77
2022/10/18 08:14:19;;;;;;;8.20;4.40;;;;;;;16.43;100.00;99944.53;5091105;28;20044;-77
2022/10/18 08:16:45;;;;;;;11.70;3.13;;;;;;;16.46;100.00;99927.66;5085550;28;20041;-77
2022/10/18 08:19:12;;;;;;;6.05;3.53;;;;;;;16.46;100.00;99943.28;5086038;28;20139;-77
2022/10/18 08:21:38;;;;;;;11.77;4.15;;;;;;;16.40;100.00;99944.13;5089109;28;20044;-77
2022/10/18 08:24:07;;;;;;;12.15;3.78;;;;;;;16.55;100.00;99958.53;5075321;28;20406;-77
2022/10/18 08:26:33;;;;;;;6.43;3.50;;;;;;;16.51;100.00;99956.41;5092607;28;20040;-77
2022/10/18 08:29:00;;;;;;;7.38;3.30;;;;;;;16.31;100.00;99932.47;5088297;28;20048;-77
2022/10/18 08:31:26;;;;;;;9.30;3.92;;;;;;;16.21;100.00;99945.69;5089711;28;20051;-77
2022/10/18 08:33:55;;;;;;;8.07;3.60;;;;;;;16.34;100.00;99970.47;5090546;28;20044;-77
2022/10/18 08:36:21;;;;;;;6.57;3.13;;;;;;;16.39;100.00;99967.94;5084363;28;20049;-77
2022/10/18 08:38:48;;;;;;;8.55;3.65;;;;;;;16.30;100.00;99962.84;5091807;28;20513;-77
2022/10/18 08:41:32;;;;;;;8.85;4.13;;;;;;;16.45;100.00;99974.53;5076637;28;20451;-77
2022/10/18 08:44:07;;;;;;;6.75;3.22;;;;;;;16.41;100.00;99959.50;5089137;28;20134;-77
2022/10/18 08:46:36;;;;;;;7.15;3.38;;;;;;;16.66;100.00;99975.47;5090131;28;20040;-77
2022/10/18 08:49:05;;;;;;;4.68;3.05;;;;;;;16.75;100.00;99968.75;5089929;28;20491;-77
2022/10/18 08:51:38;;;;;;;3.95;3.25;;;;;;;16.76;100.00;99968.53;5092546;28;20047;-77
2022/10/18 08:54:11;;;;;;;11.55;2.80;;;;;;;16.98;100.00;99977.53;5089004;28;20048;-77
2022/10/18 08:56:41;;;;;;;7.22;3.10;;;;;;;16.97;100.00;99973.06;5087050;28;20054;-77
2022/10/18 08:59:10;;;;;;;9.85;3.13;;;;;;;17.04;100.00;99973.09;5090949;28;20052;-77
2022/10/18 09:01:47;;;;;;;7.55;2.80;;;;;;;16.98;100.00;99961.03;5091267;28;20037;-77
2022/10/18 09:04:34;;;;;;;7.47;3.20;;;;;;;17.16;100.00;99976.06;5086110;28;20048;-77
2022/10/18 09:07:23;;;;;;;6.65;3.05;;;;;;;17.21;100.00;99987.28;5090363;28;20044;-77
2022/10/18 09:09:55;;;;;;;5.35;2.63;;;;;;;17.19;100.00;99996.78;5085103;28;20067;-77
2022/10/18 09:12:44;;;;;;;4.95;2.90;;;;;;;17.18;100.00;99990.47;5083268;28;20054;-77
2022/10/18 09:15:16;;;;;;;7.60;2.97;;;;;;;17.29;100.00;100000.81;5083263;28;20138;-77
2022/10/18 09:18:00;;;;;;;6.18;3.03;;;;;;;17.32;100.00;100011.41;5091228;28;20143;-77
2022/10/18 09:20:35;;;;;;;8.18;2.80;;;;;;;17.32;100.00;100013.31;5083720;28;20079;-77
2022/10/18 09:23:12;;;;;;;17.02;3.25;;;;;;;17.27;100.00;99997.44;5083091;28;20084;-77
2022/10/18 09:25:46;;;;;;;6.43;2.78;;;;;;;17.24;100.00;99997.03;5079800;28;20056;-77
2022/10/18 09:28:36;;;;;;;5.97;3.08;;;;;;;17.25;100.00;100004.19;5089525;28;20052;-76
2022/10/18 09:31:07;;;;;;;5.40;2.90;;;;;;;17.27;100.00;100008.44;5089096;28;20475;-77
2022/10/18 09:33:43;;;;;;;7.45;2.88;;;;;;;17.34;100.00;100016.69;5089571;28;20051;-77
2022/10/18 09:36:17;;;;;;;5.53;2.58;;;;;;;17.35;100.00;100001.91;5090546;28;20044;-77
2022/10/18 09:38:48;;;;;;;7.47;2.70;;;;;;;17.42;100.00;100005.50;5091166;28;20051;-77
2022/10/18 09:41:19;;;;;;;5.28;2.53;;;;;;;17.34;100.00;100005.69;5090704;28;20041;-77
2022/10/18 09:43:54;;;;;;;6.60;2.70;;;;;;;17.31;100.00;99995.13;5089188;28;20040;-77
2022/10/18 09:46:24;;;;;;;4.60;2.45;;;;;;;17.38;100.00;100001.47;5088889;28;20047;-76
2022/10/18 09:48:56;;;;;;;6.57;2.67;;;;;;;17.39;100.00;100002.31;5087347;28;20518;-77
2022/10/18 09:51:26;;;;;;;5.07;2.60;;;;;;;17.61;100.00;100001.06;5090063;28;20044;-77
2022/10/18 09:54:05;;;;;;;9.20;2.88;;;;;;;17.66;100.00;99993.03;5090123;28;20506;-77
2022/10/18 09:56:36;;;;;;;7.97;3.17;;;;;;;17.84;100.00;99994.31;5090533;28;20040;-77
2022/10/18 09:59:03;;;;;;;6.85;2.60;;;;;;;17.74;100.00;99985.66;5089612;28;20048;-77
2022/10/18 10:01:32;;;;;;;5.32;3.15;;;;;;;18.03;100.00;100000.88;5088467;28;20598;-77
2022/10/18 10:03:59;;;;;;;5.70;3.00;;;;;;;18.14;100.00;99986.50;5087556;28;20055;-77
2022/10/18 10:06:27;;;;;;;6.72;3.15;;;;;;;18.42;100.00;99993.59;5094460;28;20040;-77
2022/10/18 10:09:00;;;;;;;7.07;3.05;;;;;;;18.69;97.73;99979.75;5093554;28;20070;-77
2022/10/18 10:11:33;;;;;;;7.43;2.88;;;;;;;18.97;96.33;100008.88;5093525;28;20075;-77
2022/10/18 10:14:12;;;;;;;4.40;2.83;;;;;;;18.97;95.52;99981.34;5088101;28;20569;-77
2022/10/18 10:16:49;;;;;;;12.95;3.35;;;;;;;18.99;97.77;100007.59;5090011;28;20048;-77
2022/10/18 10:19:23;;;;;;;4.35;2.28;;;;;;;19.03;96.70;99999.75;5089633;28;20040;-77
2022/10/18 10:21:53;;;;;;;6.20;3.05;;;;;;;19.11;93.54;99993.97;5082195;28;20044;-77
2022/10/18 10:24:25;;;;;;;10.60;2.90;;;;;;;19.10;95.57;99992.28;5082858;28;20055;-77
2022/10/18 10:27:00;;;;;;;7.47;2.75;;;;;;;19.25;95.34;99990.09;5084825;28;20080;-77
2022/10/18 10:29:55;;;;;;;5.20;2.55;;;;;;;19.42;94.39;99987.63;5085748;28;20054;-77
2022/10/18 10:32:24;;;;;;;10.43;2.58;;;;;;;19.62;93.19;99987.47;5084843;28;20059;-77
2022/10/18 10:34:51;;;;;;;7.55;2.60;;;;;;;19.71;93.99;100001.84;5085922;28;20048;-77
2022/10/18 10:37:32;;;;;;;8.02;2.40;;;;;;;19.75;90.97;99981.03;5084771;28;20048;-77
2022/10/18 10:40:12;;;;;;;3.83;2.30;;;;;;;19.72;90.57;99980.59;5081815;28;20228;-77
2022/10/18 10:43:00;;;;;;;4.28;2.45;;;;;;;19.78;91.92;99999.03;5082405;28;20566;-77
2022/10/18 10:45:31;;;;;;;9.20;2.70;;;;;;;19.82;94.59;100003.06;5084767;28;20044;-77
2022/10/18 10:48:06;;;;;;;7.38;2.40;;;;;;;19.78;92.12;99997.16;5087138;28;20095;-77
2022/10/18 10:50:49;;;;;;;9.68;2.72;;;;;;;19.62;93.11;99994.91;5086689;28;20047;-77
2022/10/18 10:53:28;;;;;;;9.65;2.80;;;;;;;19.59;92.75;99987.09;5086409;28;20079;-77
2022/10/18 10:55:57;;;;;;;3.95;2.15;;;;;;;19.69;92.46;99995.72;5086988;28;20043;-77
2022/10/18 10:58:26;;;;;;;5.97;2.38;;;;;;;19.76;91.59;100001.16;5085766;28;20055;-77
2022/10/18 11:00:56;;;;;;;7.22;2.28;;;;;;;19.77;90.65;99995.47;5081356;28;20039;-78
2022/10/18 11:03:23;;;;;;;6.07;2.55;;;;;;;19.82;88.64;99993.94;5086671;28;20048;-77
2022/10/18 11:05:54;;;;;;;5.25;2.10;;;;;;;19.95;87.47;99996.59;5085192;28;20044;-77
2022/10/18 11:08:23;;;;;;;9.25;2.30;;;;;;;20.03;86.19;99988.00;5082983;28;20306;-77
2022/10/18 11:10:59;;;;;;;7.68;2.10;;;;;;;20.09;85.44;99994.53;5081303;28;20570;-77
2022/10/18 11:13:40;;;;;;;5.05;2.10;;;;;;;20.30;85.80;99985.81;5083802;28;20051;-77
2022/10/18 11:16:14;;;;;;;8.55;2.45;;;;;;;20.35;84.01;99974.09;5083407;28;20071;-77
2022/10/18 11:18:43;;;;;;;5.55;1.90;;;;;;;20.47;83.81;99963.13;5082507;28;20054;-77
2022/10/18 11:21:14;;;;;;;4.90;2.10;;;;;;;20.58;80.57;99970.66;5081114;28;22279;-77
2022/10/18 11:23:42;;;;;;;8.95;2.17;;;;;;;20.70;82.57;99973.50;5081290;28;20070;-77
2022/10/18 11:26:45;;;;;;;6.47;2.03;;;;;;;20.80;79.57;99961.88;5081325;28;20532;-77
2022/10/18 11:29:35;;;;;;;3.88;2.03;;;;;;;20.92;77.91;99965.53;5081802;28;20075;-78
2022/10/18 11:32:12;;;;;;;5.45;1.70;;;;;;;20.81;78.66;99967.19;5084190;28;20135;-77
2022/10/18 11:34:52;;;;;;;5.18;2.10;;;;;;;20.72;78.78;99945.66;5087955;28;20406;-77
2022/10/18 11:37:32;;;;;;;6.68;1.95;;;;;;;20.75;80.26;99957.06;5084586;28;20050;-78
2022/10/18 11:40:03;;;;;;;;;;;;;;;20.89;80.80;99965.19;5083258;28;20052;-78
2022/10/18 11:42:39;;;;;;;5.60;1.80;;;;;;;20.88;81.37;99969.88;5085321;28;19935;-77
2022/10/18 11:45:19;;;;;;;11.20;2.42;;;;;;;20.56;83.04;99947.91;5084948;28;20479;-77
2022/10/18 11:47:52;;;;;;;4.50;1.98;;;;;;;20.37;84.77;99957.28;5084567;28;20040;-78
2022/10/18 11:50:27;;;;;;;11.10;2.45;;;;;;;20.32;86.48;99967.13;5085013;28;20048;-77
2022/10/18 11:53:04;;;;;;;6.68;2.35;;;;;;;19.96;88.68;99962.38;5085872;28;20050;-77
2022/10/18 11:55:39;;;;;;;5.45;2.33;;;;;;;19.90;88.40;99952.25;5078811;28;20045;-77
2022/10/18 11:58:22;;;;;;;8.00;2.63;;;;;;;20.04;88.17;99964.88;5084510;28;20063;-77
2022/10/18 12:00:54;;;;;;;10.15;3.03;;;;;;;20.13;89.23;99982.81;5085593;28;20172;-77
2022/10/18 12:03:31;;;;;;;6.28;3.47;;;;;;;20.00;89.39;99980.19;5083321;28;20493;-77
2022/10/18 12:06:03;;;;;;;6.70;2.30;;;;;;;19.96;90.67;99982.56;5086080;28;20509;-77
2022/10/18 12:08:34;;;;;;;7.70;2.63;;;;;;;19.86;91.74;99957.41;5080429;28;20130;-77
2022/10/18 12:11:06;;;;;;;4.40;3.17;;;;;;;20.00;91.69;99979.34;5080633;28;20714;-77
2022/10/18 12:13:37;;;;;;;7.85;2.15;;;;;;;19.70;93.59;99983.59;5087119;28;20498;-78
2022/10/18 12:16:06;;;;;;;4.38;3.33;;;;;;;19.51;94.29;99954.25;5083488;28;20147;-77
2022/10/18 12:18:41;;;;;;;7.25;2.90;;;;;;;19.40;96.99;99978.72;5086292;28;20076;-78
2022/10/18 12:21:07;;;;;;;5.18;2.88;;;;;;;19.31;97.48;99971.78;5089694;28;20052;-76
2022/10/18 12:23:42;;;;;;;5.70;2.55;;;;;;;19.33;97.43;99972.44;5088633;28;20048;-77
2022/10/18 12:26:10;;;;;;;7.38;2.67;;;;;;;19.35;96.03;99963.94;5081999;28;21048;-77
2022/10/18 12:28:48;;;;;;;3.80;2.20;;;;;;;19.43;96.31;99969.19;5081614;28;20044;-77
2022/10/18 12:31:24;;;;;;;4.43;1.92;;;;;;;19.22;96.63;99956.59;5080054;28;20572;-77
2022/10/18 12:33:56;;;;;;;5.15;2.25;;;;;;;19.65;95.25;99966.88;5084838;28;20044;-77
2022/10/18 12:36:47;;;;;;;6.28;2.38;;;;;;;19.79;92.64;99965.72;5083760;28;20126;-77
2022/10/18 12:39:21;;;;;;;3.72;1.95;;;;;;;19.93;91.07;99963.69;5084536;28;20170;-78
2022/10/18 12:41:48;;;;;;;4.00;1.63;;;;;;;20.29;89.70;99961.19;5083551;28;20487;-77
2022/10/18 12:44:20;;;;;;;4.40;2.45;;;;;;;20.29;87.82;99950.16;5085341;28;20044;-77
2022/10/18 12:46:49;;;;;;;3.58;2.30;;;;;;;19.97;89.29;99958.56;5084053;28;20054;-77
2022/10/18 12:49:23;;;;;;;4.68;2.08;;;;;;;19.64;90.11;99948.63;5081478;28;20051;-76
2022/10/18 12:51:52;;;;;;;9.90;2.28;;;;;;;19.57;94.18;99958.88;5085178;28;20265;-76
2022/10/18 12:54:23;;;;;;;7.43;2.30;;;;;;;19.46;93.71;99941.16;5078580;28;20051;-76
2022/10/18 12:56:50;;;;;;;3.55;1.90;;;;;;;19.55;93.46;99944.47;5073460;28;20082;-76
2022/10/18 12:59:50;;;;;;;6.03;2.30;;;;;;;19.60;93.53;99951.00;5080615;28;20790;-76
2022/10/18 13:02:23;;;;;;;2.80;1.98;;;;;;;19.75;93.15;99956.19;5085354;28;20544;-77
2022/10/18 13:04:51;;;;;;;2.85;1.67;;;;;;;19.72;91.89;99942.84;5080582;28;20056;-76
2022/10/18 13:07:21;;;;;;;2.95;2.35;;;;;;;19.98;88.72;99944.53;5081568;28;20512;-77
2022/10/18 13:10:39;;;;;;;3.90;1.95;;;;;;;20.19;86.25;99958.97;5079834;28;20051;-76
2022/10/18 13:13:42;;;;;;;4.40;1.90;;;;;;;20.26;86.92;99943.16;5083041;28;20044;-76
2022/10/18 13:16:32;;;;;;;3.17;1.67;;;;;;;20.54;86.10;99946.47;5079617;28;20052;-76
2022/10/18 13:19:10;;;;;;;5.05;2.05;;;;;;;20.56;87.03;99938.78;5085295;28;20048;-76
2022/10/18 13:21:47;;;;;;;4.45;2.25;;;;;;;20.33;87.96;99949.47;5080154;28;20048;-76
2022/10/18 13:24:24;;;;;;;4.07;1.98;;;;;;;20.27;89.07;99952.31;5080361;28;20612;-76
2022/10/18 13:27:10;;;;;;;2.88;1.67;;;;;;;20.36;85.68;99955.63;5081158;28;20048;-76
2022/10/18 13:29:55;;;;;;;2.80;1.85;;;;;;;20.49;85.87;99953.53;5084027;28;20399;-76
2022/10/18 13:32:27;;;;;;;5.65;2.00;;;;;;;20.70;83.90;99948.66;5081021;28;20102;-77
2022/10/18 13:34:54;;;;;;;6.10;1.98;;;;;;;20.82;84.91;99944.00;5080902;28;20052;-76
2022/10/18 13:37:24;;;;;;;3.22;1.45;;;;;;;20.51;82.33;99923.75;5082651;28;20474;-76
2022/10/18 13:40:12;;;;;;;5.45;1.58;;;;;;;20.33;82.40;99921.00;5085109;28;20547;-76
2022/10/18 13:42:38;;;;;;;2.95;1.48;;;;;;;20.43;82.54;99937.88;5084310;28;20099;-76
2022/10/18 13:45:44;;;;;;;2.25;1.50;;;;;;;20.48;83.90;99951.84;5082248;28;20048;-76
2022/10/18 13:48:58;;;;;;;1.85;1.30;;;;;;;20.40;82.73;99951.28;5083431;28;20095;-77
2022/10/18 13:51:52;;;;;;;5.47;1.73;;;;;;;20.52;80.40;99953.06;5058935;28;20044;-76
2022/10/18 13:54:46;;;;;;;3.38;1.50;;;;;;;20.79;79.41;99936.19;5080529;28;20898;-77
2022/10/18 13:57:25;;;;;;;1.27;1.17;;;;;;;20.83;79.60;99939.31;5081436;28;20395;-76
2022/10/18 14:00:17;;;;;;;5.50;1.58;;;;;;;21.12;79.91;99947.84;5083003;28;20040;-77
2022/10/18 14:03:04;;;;;;;2.83;1.88;;;;;;;20.64;80.56;99938.47;5082226;28;20047;-77
2022/10/18 14:05:51;;;;;;;4.05;1.50;;;;;;;20.57;80.85;99932.19;5081337;28;20084;-77
2022/10/18 14:08:22;;;;;;;1.30;1.15;;;;;;;20.49;82.31;99936.97;5079150;28;20048;-77
2022/10/18 14:10:59;;;;;;;4.75;1.90;;;;;;;20.41;83.44;99953.00;5080593;28;20040;-76
2022/10/18 14:13:31;;;;;;;2.53;1.75;;;;;;;20.30;84.64;99946.31;5080775;28;20441;-76
2022/10/18 14:16:04;;;;;;;4.22;1.88;;;;;;;20.34;84.93;99931.00;5079713;28;20048;-76
2022/10/18 14:18:33;;;;;;;6.25;1.73;;;;;;;20.32;85.96;99956.06;5080911;28;20052;-77
2022/10/18 14:21:04;;;;;;;7.00;1.93;;;;;;;20.13;87.51;99960.72;5083660;28;20056;-76
2022/10/18 14:23:34;;;;;;;2.65;1.60;;;;;;;20.06;88.32;99951.66;5079388;28;20047;-76
2022/10/18 14:26:08;;;;;;;2.50;1.90;;;;;;;20.01;89.14;99962.56;5079807;28;20052;-76
2022/10/18 14:28:35;;;;;;;3.05;1.83;;;;;;;19.97;90.83;99966.84;5083603;28;20399;-76
2022/10/18 14:31:05;;;;;;;2.17;1.80;;;;;;;19.84;91.35;99950.41;5082201;28;20058;-76
2022/10/18 14:33:33;;;;;;;;;;;;;;;20.02;91.33;99971.66;5077580;28;20040;-76
2022/10/18 14:36:03;;;;;;;3.80;1.92;;;;;;;19.99;91.74;99964.69;5078158;28;19950;-76
2022/10/18 14:38:29;;;;;;;;;;;;;;;20.06;92.42;99971.00;5080865;28;20066;-77
2022/10/18 14:41:17;;;;;;;5.55;1.75;;;;;;;20.05;91.38;99955.50;5082147;28;19928;-76
2022/10/18 14:43:45;;;;;;;4.00;1.77;;;;;;;20.10;91.93;99972.22;5081077;28;20044;-76
2022/10/18 14:46:18;;;;;;;3.55;2.50;;;;;;;20.10;91.23;99969.47;5082512;28;20079;-76
2022/10/18 14:48:53;;;;;;;3.22;2.20;;;;;;;20.14;92.14;99973.47;5078924;28;20044;-76
2022/10/18 14:51:20;;;;;;;7.45;2.60;;;;;;;20.06;93.40;99959.94;5084340;28;20495;-76
2022/10/18 14:53:47;;;;;;;4.20;2.90;;;;;;;19.94;92.98;99959.84;5080855;28;20661;-76
2022/10/18 14:56:23;;;;;;;4.63;2.60;;;;;;;20.03;92.82;99963.16;5078283;28;20844;-76
2022/10/18 14:58:51;;;;;;;4.90;2.60;;;;;;;20.15;92.98;99969.63;5084150;28;20488;-76
2022/10/18 15:01:20;;;;;;;2.90;2.00;;;;;;;20.22;90.11;99964.03;5083658;28;20137;-76
2022/10/18 15:03:47;;;;;;;4.55;2.40;;;;;;;20.19;87.45;99961.75;5087760;28;20113;-76
2022/10/18 15:06:17;;;;;;;7.40;2.58;;;;;;;19.98;89.11;99972.13;5089272;28;20048;-76
2022/10/18 15:08:46;;;;;;;4.72;2.65;;;;;;;19.75;89.51;99942.41;5088022;28;20372;-76
2022/10/18 15:11:15;;;;;;;11.63;3.13;;;;;;;19.69;90.50;99947.97;5086857;28;20058;-76
2022/10/18 15:13:49;;;;;;;3.65;2.35;;;;;;;19.56;90.55;99958.03;5087840;28;20040;-76
2022/10/18 15:16:18;;;;;;;4.70;2.22;;;;;;;19.63;90.66;99969.88;5083708;28;20101;-76
2022/10/18 15:18:58;;;;;;;4.75;2.38;;;;;;;19.49;89.38;99961.94;5087291;28;20044;-76
2022/10/18 15:21:26;;;;;;;5.65;2.28;;;;;;;19.45;89.35;99961.50;5087766;28;20051;-76
2022/10/18 15:23:53;;;;;;;7.22;2.33;;;;;;;19.40;90.29;99959.44;5085597;28;20048;-76
2022/10/18 15:26:24;;;;;;;2.53;2.33;;;;;;;19.33;90.09;99935.75;5086682;28;20052;-76
2022/10/18 15:28:55;;;;;;;5.35;2.10;;;;;;;19.38;90.51;99963.50;5084320;28;20132;-76
2022/10/18 15:31:25;;;;;;;2.92;2.33;;;;;;;19.36;90.34;99962.84;5086182;28;20062;-76
2022/10/18 15:33:52;;;;;;;3.22;2.60;;;;;;;19.34;90.74;99956.72;5085088;28;20411;-76
2022/10/18 15:36:26;;;;;;;3.60;2.80;;;;;;;19.29;90.91;99946.38;5084962;28;20049;-76
2022/10/18 15:38:53;;;;;;;3.85;2.35;;;;;;;19.25;91.92;99946.00;5084284;28;20055;-77
2022/10/18 15:41:43;;;;;;;5.00;2.42;;;;;;;19.30;94.02;99955.47;5081509;28;20135;-76
2022/10/18 15:44:21;;;;;;;2.53;2.33;;;;;;;19.11;94.56;99944.38;5081469;28;20058;-76
2022/10/18 15:46:48;;;;;;;4.10;2.53;;;;;;;19.20;95.43;99959.56;5078007;28;20083;-76
2022/10/18 15:49:49;;;;;;;2.85;2.25;;;;;;;19.11;96.91;99949.88;5084895;28;20087;-76
2022/10/18 15:52:43;;;;;;;3.70;2.70;;;;;;;19.04;98.91;99952.66;5084796;28;20490;-76
2022/10/18 15:55:45;;;;;;;3.00;2.50;;;;;;;19.08;98.88;99958.59;5085872;28;20094;-76
2022/10/18 15:58:15;;;;;;;5.28;3.17;;;;;;;18.96;98.04;99965.88;5082438;28;20316;-76
2022/10/18 16:00:44;;;;;;;3.80;3.13;;;;;;;18.91;99.09;99955.53;5081402;28;20418;-77
2022/10/18 16:03:11;;;;;;;4.38;2.80;;;;;;;18.83;99.40;99947.47;5081084;28;20048;-76
2022/10/18 16:05:39;;;;;;;6.93;3.40;;;;;;;18.90;100.00;99962.09;5082910;28;20125;-75
2022/10/18 16:08:06;;;;;;;3.90;2.83;;;;;;;18.91;100.00;99955.53;5080246;28;20044;-76
2022/10/18 16:10:33;;;;;;;3.58;2.47;;;;;;;18.90;100.00;99973.13;5082468;28;20048;-76
2022/10/18 16:12:59;;;;;;;7.68;2.60;;;;;;;18.64;100.00;99952.88;5079521;28;20044;-76
2022/10/18 16:15:26;;;;;;;7.28;2.90;;;;;;;18.81;100.00;99971.66;5082471;28;20044;-76
2022/10/18 16:17:53;;;;;;;7.45;3.00;;;;;;;18.62;100.00;99956.91;5085879;28;20494;-76
2022/10/18 16:20:23;;;;;;;6.18;2.90;;;;;;;18.57;100.00;99971.31;5082764;28;20082;-76
2022/10/18 16:22:49;;;;;;;10.00;2.92;;;;;;;18.48;100.00;99965.22;5080880;28;20048;-76
2022/10/18 16:25:16;;;;;;;5.68;3.40;;;;;;;18.45;100.00;99981.31;5082041;28;20054;-76
2022/10/18 16:27:43;;;;;;;5.95;3.20;;;;;;;18.38;100.00;99973.94;5079508;28;20036;-76
2022/10/18 16:30:13;;;;;;;8.30;3.05;;;;;;;18.39;100.00;99972.00;5084155;28;20109;-76
2022/10/18 16:32:40;;;;;;;5.47;3.50;;;;;;;18.34;100.00;99982.84;5081271;28;20551;-76
2022/10/18 16:35:11;;;;;;;5.40;2.63;;;;;;;18.18;100.00;99968.47;5080726;28;20049;-76
2022/10/18 16:37:38;;;;;;;7.28;2.95;;;;;;;18.20;100.00;99980.13;5081962;28;20091;-76
2022/10/18 16:40:21;;;;;;;8.52;3.22;;;;;;;18.19;100.00;99985.84;5081228;28;20089;-76
2022/10/18 16:42:47;;;;;;;4.15;2.63;;;;;;;18.22;100.00;99979.91;5085677;28;20073;-76
2022/10/18 16:45:14;;;;;;;6.50;2.80;;;;;;;18.10;100.00;99976.97;5081684;28;20048;-76
2022/10/18 16:47:41;;;;;;;4.05;2.60;;;;;;;18.08;100.00;99978.22;5084372;28;20139;-76
2022/10/18 16:50:14;;;;;;;5.57;2.72;;;;;;;18.00;100.00;99991.13;5081527;28;20078;-76
2022/10/18 16:52:41;;;;;;;5.10;2.85;;;;;;;18.03;100.00;99993.47;5081455;28;20050;-76
2022/10/18 16:55:15;;;;;;;4.70;2.83;;;;;;;18.04;100.00;100002.59;5082363;28;20044;-76
2022/10/18 16:57:42;;;;;;;3.70;2.85;;;;;;;17.86;100.00;99976.53;5080395;28;20040;-76
2022/10/18 17:00:15;;;;;;;6.45;3.45;;;;;;;17.91;100.00;99992.44;5084061;28;20139;-76
2022/10/18 17:02:42;;;;;;;5.03;3.60;;;;;;;17.88;100.00;100001.06;5081675;28;20131;-76
2022/10/18 17:05:10;;;;;;;4.30;2.75;;;;;;;17.90;100.00;100012.75;5081205;28;21422;-77
2022/10/18 17:07:38;;;;;;;5.40;3.78;;;;;;;17.77;100.00;100016.31;5082378;28;20052;-76
2022/10/18 17:10:05;;;;;;;8.18;5.97;;;;;;;17.77;100.00;100012.72;5083768;28;20052;-76
2022/10/18 17:12:32;;;;;;;6.03;5.43;;;;;;;17.72;100.00;99994.13;5081428;28;20072;-76
2022/10/18 17:14:58;;;;;;;4.85;4.38;;;;;;;17.73;100.00;100005.94;5082446;28;20047;-76
2022/10/18 17:17:25;;;;;;;7.32;3.28;;;;;;;17.73;100.00;100023.28;5082826;28;20084;-76
2022/10/18 17:19:52;;;;;;;3.90;2.70;;;;;;;17.60;100.00;100010.38;5084776;28;20047;-76
2022/10/18 17:22:20;;;;;;;7.05;4.50;;;;;;;17.63;100.00;100020.09;5080327;28;20064;-76
2022/10/18 17:24:46;;;;;;;7.22;3.83;;;;;;;17.65;100.00;100012.50;5081769;28;20539;-76
2022/10/18 17:27:13;;;;;;;10.77;3.10;;;;;;;17.71;100.00;100025.41;5085671;28;20055;-76
2022/10/18 17:29:40;;;;;;;4.57;2.78;;;;;;;17.67;100.00;100021.38;5080913;28;20051;-76
2022/10/18 17:32:07;;;;;;;9.23;3.40;;;;;;;17.58;100.00;100017.16;5079459;28;20040;-76
2022/10/18 17:34:34;;;;;;;4.47;3.22;;;;;;;17.56;100.00;100013.78;5084105;28;20040;-76
2022/10/18 17:37:01;;;;;;;4.90;3.20;;;;;;;17.62;100.00;100023.94;5081979;28;20052;-76
2022/10/18 17:39:29;;;;;;;10.48;4.93;;;;;;;17.64;100.00;100033.66;5084067;28;20489;-76
2022/10/18 17:41:56;;;;;;;7.60;4.20;;;;;;;17.62;100.00;100013.75;5084423;28;20047;-76
2022/10/18 17:44:24;;;;;;;5.75;2.85;;;;;;;17.59;100.00;100013.34;5082274;28;20044;-76
2022/10/18 17:46:50;;;;;;;12.95;3.50;;;;;;;17.55;100.00;100031.31;5082218;28;20048;-76
2022/10/18 17:49:17;;;;;;;4.90;2.85;;;;;;;17.49;100.00;100024.75;5084391;28;20075;-76
2022/10/18 17:51:45;;;;;;;5.43;2.70;;;;;;;17.37;100.00;100019.00;5086151;28;20418;-76
2022/10/18 17:54:12;;;;;;;8.50;2.80;;;;;;;17.40;100.00;100031.50;5081506;28;20044;-77
2022/10/18 17:56:40;;;;;;;7.47;2.70;;;;;;;17.12;100.00;100000.38;5081831;28;20047;-76
2022/10/18 17:59:07;;;;;;;5.75;2.95;;;;;;;17.09;100.00;100014.53;5083578;28;20048;-76
2022/10/18 18:01:34;;;;;;;5.57;3.13;;;;;;;17.28;100.00;100023.00;5085054;28;20170;-76
2022/10/18 18:04:02;;;;;;;4.18;2.97;;;;;;;17.02;100.00;100018.31;5080201;28;20153;-76
2022/10/18 18:06:32;;;;;;;9.73;3.17;;;;;;;17.15;100.00;100037.59;5084172;28;20138;-76
2022/10/18 18:09:00;;;;;;;5.68;3.00;;;;;;;17.05;100.00;100023.38;5083686;28;20050;-77
2022/10/18 18:11:28;;;;;;;2.85;2.58;;;;;;;17.29;100.00;100042.03;5081399;28;20067;-76
2022/10/18 18:13:56;;;;;;;7.15;3.42;;;;;;;17.26;100.00;100023.22;5079977;28;20058;-76
2022/10/18 18:16:24;;;;;;;12.73;7.28;;;;;;;17.11;100.00;100015.16;5083737;28;20074;-76
2022/10/18 18:18:54;;;;;;;8.52;3.95;;;;;;;17.02;100.00;100021.06;5083880;28;20050;-76
2022/10/18 18:21:22;;;;;;;5.22;3.53;;;;;;;17.05;100.00;100039.88;5080586;28;20036;-76
2022/10/18 18:23:49;;;;;;;5.57;4.15;;;;;;;16.97;100.00;100030.75;5083408;28;20473;-76
2022/10/18 18:26:16;;;;;;;10.57;7.40;;;;;;;16.95;100.00;100024.63;5082570;28;20127;-76
2022/10/18 18:28:43;;;;;;;10.65;5.43;;;;;;;16.96;100.00;100023.56;5084383;28;20414;-76
2022/10/18 18:31:13;;;;;;;6.38;4.75;;;;;;;17.01;100.00;100033.09;5081193;28;20411;-77